Time,TemperatureF,DewpointF,PressureIn,WindDirection,WindDirectionDegrees,WindSpeedMPH,WindSpeedGustMPH,Humidity,HourlyPrecipIn,Conditions,Clouds,dailyrainin,SoftwareType,DateUTC
2013-02-01 00:05:00,22.4,19.0,30.68,West,268,1.0,-999.0,85,-99.99,,,0.00,weatherlink.com 1.10,2013-02-01 07:05:00,
2013-02-01 00:21:00,22.9,19.0,30.68,West,268,0.0,-999.0,83,-99.99,,,0.00,weatherlink.com 1.10,2013-02-01 07:21:00,
2013-02-01 00:36:00,22.5,18.0,30.68,West,268,1.0,-999.0,83,-99.99,,,0.00,weatherlink.com 1.10,2013-02-01 07:36:00,
2013-02-01 00:51:00,21.8,17.0,30.68,West,268,0.0,-999.0,83,-99.99,,,0.00,weatherlink.com 1.10,2013-02-01 07:51:00,
2013-02-01 01:05:00,21.4,17.0,30.65,West,268,0.0,-999.0,84,-99.99,,,0.00,weatherlink.com 1.10,2013-02-01 08:05:00,
2013-02-01 01:20:00,21.0,17.0,30.66,West,268,0.0,-999.0,85,-99.99,,,0.00,weatherlink.com 1.10,2013-02-01 08:20:00,
2013-02-01 01:35:00,20.3,17.0,30.65,West,268,0.0,-999.0,86,-99.99,,,0.00,weatherlink.com 1.10,2013-02-01 08:35:00,
2013-02-01 01:50:00,20.5,17.0,30.65,West,268,0.0,-999.0,85,-99.99,,,0.00,weatherlink.com 1.10,2013-02-01 08:50:00,
2013-02-01 02:21:00,20.6,17.0,30.65,West,268,0.0,-999.0,84,-99.99,,,0.00,weatherlink.com 1.10,2013-02-01 09:21:00,
2013-02-01 02:36:00,21.1,16.0,30.65,West,268,0.0,-999.0,81,-99.99,,,0.00,weatherlink.com 1.10,2013-02-01 09:36:00,
2013-02-01 02:51:00,20.3,16.0,30.65,West,268,0.0,-999.0,83,-99.99,,,0.00,weatherlink.com 1.10,2013-02-01 09:51:00,
2013-02-01 03:06:00,19.9,16.0,30.68,West,268,0.0,-999.0,84,-99.99,,,0.00,weatherlink.com 1.10,2013-02-01 10:06:00,
2013-02-01 03:20:00,20.0,16.0,30.68,West,268,0.0,-999.0,83,-99.99,,,0.00,weatherlink.com 1.10,2013-02-01 10:20:00,
2013-02-01 03:35:00,19.4,15.0,30.68,West,268,0.0,-999.0,84,-99.99,,,0.00,weatherlink.com 1.10,2013-02-01 10:35:00,
2013-02-01 03:51:00,21.0,15.0,30.66,West,268,0.0,-999.0,79,-99.99,,,0.00,weatherlink.com 1.10,2013-02-01 10:51:00,
2013-02-01 04:05:00,20.0,15.0,30.71,West,268,0.0,-999.0,82,-99.99,,,0.00,weatherlink.com 1.10,2013-02-01 11:05:00,
2013-02-01 04:20:00,20.0,15.0,30.72,West,268,0.0,-999.0,82,-99.99,,,0.00,weatherlink.com 1.10,2013-02-01 11:20:00,
2013-02-01 04:35:00,20.3,15.0,30.71,West,268,0.0,-999.0,80,-99.99,,,0.00,weatherlink.com 1.10,2013-02-01 11:35:00,
2013-02-01 04:50:00,19.4,15.0,30.70,West,268,0.0,-999.0,82,-99.99,,,0.00,weatherlink.com 1.10,2013-02-01 11:50:00,
2013-02-01 05:05:00,19.4,15.0,30.70,West,268,0.0,-999.0,82,-99.99,,,0.00,weatherlink.com 1.10,2013-02-01 12:05:00,
2013-02-01 05:21:00,19.4,15.0,30.70,West,268,0.0,-999.0,82,-99.99,,,0.00,weatherlink.com 1.10,2013-02-01 12:21:00,
2013-02-01 05:35:00,18.8,15.0,30.70,West,268,1.0,-999.0,84,-99.99,,,0.00,weatherlink.com 1.10,2013-02-01 12:35:00,
2013-02-01 05:51:00,19.9,15.0,30.68,West,268,0.0,-999.0,81,-99.99,,,0.00,weatherlink.com 1.10,2013-02-01 12:51:00,
2013-02-01 06:06:00,19.4,15.0,30.70,West,268,0.0,-999.0,81,-99.99,,,0.00,weatherlink.com 1.10,2013-02-01 13:06:00,
2013-02-01 06:20:00,18.9,15.0,30.72,West,268,0.0,-999.0,83,-99.99,,,0.00,weatherlink.com 1.10,2013-02-01 13:20:00,
2013-02-01 06:35:00,19.4,15.0,30.72,West,268,0.0,-999.0,81,-99.99,,,0.00,weatherlink.com 1.10,2013-02-01 13:35:00,
2013-02-01 06:50:00,19.4,14.0,30.72,West,268,0.0,-999.0,80,-99.99,,,0.00,weatherlink.com 1.10,2013-02-01 13:50:00,
2013-02-01 07:05:00,18.9,14.0,30.73,West,268,0.0,-999.0,82,-99.99,,,0.00,weatherlink.com 1.10,2013-02-01 14:05:00,
2013-02-01 07:21:00,18.0,14.0,30.75,West,268,0.0,-999.0,83,-99.99,,,0.00,weatherlink.com 1.10,2013-02-01 14:21:00,
2013-02-01 07:35:00,18.4,14.0,30.75,West,268,0.0,-999.0,83,-99.99,,,0.00,weatherlink.com 1.10,2013-02-01 14:35:00,
2013-02-01 07:50:00,18.6,15.0,30.75,West,268,0.0,-999.0,85,-99.99,,,0.00,weatherlink.com 1.10,2013-02-01 14:50:00,
2013-02-01 08:06:00,21.6,15.0,30.75,West,268,2.0,-999.0,77,-99.99,,,0.00,weatherlink.com 1.10,2013-02-01 15:06:00,
2013-02-01 08:21:00,22.5,14.0,30.74,West,268,0.0,-999.0,71,-99.99,,,0.00,weatherlink.com 1.10,2013-02-01 15:21:00,
2013-02-01 08:36:00,23.6,14.0,30.73,West,266,2.0,-999.0,68,-99.99,,,0.00,weatherlink.com 1.10,2013-02-01 15:36:00,
2013-02-01 08:50:00,25.4,15.0,30.73,West,259,0.0,-999.0,65,-99.99,,,0.00,weatherlink.com 1.10,2013-02-01 15:50:00,
2013-02-01 09:05:00,27.3,15.0,30.71,West,259,1.0,-999.0,61,-99.99,,,0.00,weatherlink.com 1.10,2013-02-01 16:05:00,
2013-02-01 09:21:00,29.4,16.0,30.69,SE,132,0.0,-999.0,58,-99.99,,,0.00,weatherlink.com 1.10,2013-02-01 16:21:00,
2013-02-01 09:35:00,29.5,16.0,30.69,SE,136,0.0,-999.0,57,-99.99,,,0.01,weatherlink.com 1.10,2013-02-01 16:35:00,
2013-02-01 09:50:00,31.0,16.0,30.67,SE,142,0.0,-999.0,54,-99.99,,,0.01,weatherlink.com 1.10,2013-02-01 16:50:00,
2013-02-01 10:05:00,31.2,17.0,30.69,ESE,119,1.0,-999.0,55,-99.99,,,0.01,weatherlink.com 1.10,2013-02-01 17:05:00,
2013-02-01 10:20:00,31.9,16.0,30.67,SSE,160,1.0,-999.0,53,-99.99,,,0.01,weatherlink.com 1.10,2013-02-01 17:20:00,
2013-02-01 10:35:00,31.9,16.0,30.67,SSE,149,0.0,-999.0,53,-99.99,,,0.02,weatherlink.com 1.10,2013-02-01 17:35:00,
2013-02-01 10:50:00,32.5,16.0,30.68,South,184,0.0,-999.0,51,-99.99,,,0.02,weatherlink.com 1.10,2013-02-01 17:50:00,
2013-02-01 11:05:00,34.0,19.0,30.68,South,182,0.0,-999.0,54,-99.99,,,0.02,weatherlink.com 1.10,2013-02-01 18:05:00,
2013-02-01 11:20:00,32.8,18.0,30.67,South,191,2.0,-999.0,54,-99.99,,,0.02,weatherlink.com 1.10,2013-02-01 18:20:00,
2013-02-01 11:36:00,33.2,20.0,30.66,South,180,2.0,-999.0,59,-99.99,,,0.03,weatherlink.com 1.10,2013-02-01 18:36:00,
2013-02-01 11:50:00,33.8,21.0,30.66,WSW,248,1.0,-999.0,61,-99.99,,,0.03,weatherlink.com 1.10,2013-02-01 18:50:00,
2013-02-01 12:06:00,34.0,22.0,30.66,South,173,1.0,-999.0,63,-99.99,,,0.04,weatherlink.com 1.10,2013-02-01 19:06:00,
2013-02-01 12:20:00,35.3,24.0,30.65,SSW,193,3.0,-999.0,63,-99.99,,,0.04,weatherlink.com 1.10,2013-02-01 19:20:00,
2013-02-01 12:35:00,37.2,25.0,30.62,SW,223,0.0,-999.0,62,-99.99,,,0.05,weatherlink.com 1.10,2013-02-01 19:35:00,
2013-02-01 12:51:00,37.5,26.0,30.61,South,172,0.0,-999.0,64,-99.99,,,0.05,weatherlink.com 1.10,2013-02-01 19:51:00,
2013-02-01 13:05:00,38.0,25.0,30.59,West,269,3.0,-999.0,60,-99.99,,,0.05,weatherlink.com 1.10,2013-02-01 20:05:00,
2013-02-01 13:20:00,38.3,25.0,30.59,WSW,241,2.0,-999.0,59,-99.99,,,0.06,weatherlink.com 1.10,2013-02-01 20:20:00,
2013-02-01 13:35:00,39.6,28.0,30.58,South,191,3.0,-999.0,63,-99.99,,,0.06,weatherlink.com 1.10,2013-02-01 20:35:00,
2013-02-01 13:51:00,39.8,26.0,30.57,South,180,2.0,-999.0,59,-99.99,,,0.06,weatherlink.com 1.10,2013-02-01 20:51:00,
2013-02-01 14:05:00,41.5,28.0,30.55,SE,125,0.0,-999.0,60,-99.99,,,0.06,weatherlink.com 1.10,2013-02-01 21:05:00,
2013-02-01 14:20:00,41.5,28.0,30.55,SW,228,5.0,-999.0,58,-99.99,,,0.07,weatherlink.com 1.10,2013-02-01 21:20:00,
2013-02-01 14:35:00,41.9,28.0,30.55,SSE,148,1.0,-999.0,58,-99.99,,,0.07,weatherlink.com 1.10,2013-02-01 21:35:00,
2013-02-01 14:50:00,39.1,26.0,30.57,West,262,3.0,-999.0,60,-99.99,,,0.07,weatherlink.com 1.10,2013-02-01 21:50:00,
2013-02-01 15:05:00,39.5,26.0,30.57,WSW,252,3.0,-999.0,59,-99.99,,,0.07,weatherlink.com 1.10,2013-02-01 22:05:00,
2013-02-01 15:20:00,41.2,28.0,30.56,WNW,285,2.0,-999.0,59,-99.99,,,0.07,weatherlink.com 1.10,2013-02-01 22:20:00,
2013-02-01 15:35:00,39.3,28.0,30.57,WNW,282,2.0,-999.0,63,-99.99,,,0.07,weatherlink.com 1.10,2013-02-01 22:35:00,
2013-02-01 15:50:00,40.3,26.0,30.56,West,280,1.0,-999.0,57,-99.99,,,0.07,weatherlink.com 1.10,2013-02-01 22:50:00,
2013-02-01 16:05:00,39.6,29.0,30.57,West,280,2.0,-999.0,67,-99.99,,,0.07,weatherlink.com 1.10,2013-02-01 23:05:00,
2013-02-01 16:20:00,34.4,22.0,30.63,West,271,5.0,-999.0,61,-99.99,,,0.07,weatherlink.com 1.10,2013-02-01 23:20:00,
2013-02-01 16:35:00,34.4,26.0,30.63,West,259,2.0,-999.0,70,-99.99,,,0.07,weatherlink.com 1.10,2013-02-01 23:35:00,
2013-02-01 16:50:00,34.6,21.0,30.64,West,261,0.0,-999.0,57,-99.99,,,0.07,weatherlink.com 1.10,2013-02-01 23:50:00,
2013-02-01 17:05:00,33.8,24.0,30.64,West,261,0.0,-999.0,68,-99.99,,,0.07,weatherlink.com 1.10,2013-02-02 00:05:00,
2013-02-01 17:20:00,33.2,21.0,30.67,WSW,256,0.0,-999.0,61,-99.99,,,0.07,weatherlink.com 1.10,2013-02-02 00:20:00,
2013-02-01 17:35:00,33.2,20.0,30.67,WSW,256,0.0,-999.0,58,-99.99,,,0.07,weatherlink.com 1.10,2013-02-02 00:35:00,
2013-02-01 17:50:00,32.1,19.0,30.68,WSW,256,0.0,-999.0,59,-99.99,,,0.07,weatherlink.com 1.10,2013-02-02 00:50:00,
2013-02-01 18:05:00,31.9,19.0,30.70,WSW,256,0.0,-999.0,60,-99.99,,,0.07,weatherlink.com 1.10,2013-02-02 01:05:00,
2013-02-01 18:20:00,31.6,14.0,30.70,WSW,256,0.0,-999.0,48,-99.99,,,0.07,weatherlink.com 1.10,2013-02-02 01:20:00,
2013-02-01 18:35:00,32.7,15.0,30.71,WSW,258,0.0,-999.0,48,-99.99,,,0.07,weatherlink.com 1.10,2013-02-02 01:35:00,
2013-02-01 18:51:00,32.1,15.0,30.72,WSW,258,0.0,-999.0,49,-99.99,,,0.07,weatherlink.com 1.10,2013-02-02 01:51:00,
2013-02-01 19:05:00,32.1,13.0,30.72,WSW,258,0.0,-999.0,45,-99.99,,,0.07,weatherlink.com 1.10,2013-02-02 02:05:00,
2013-02-01 19:21:00,32.4,12.0,30.72,WSW,258,0.0,-999.0,43,-99.99,,,0.07,weatherlink.com 1.10,2013-02-02 02:21:00,
2013-02-01 19:35:00,32.2,14.0,30.73,WSW,258,0.0,-999.0,47,-99.99,,,0.07,weatherlink.com 1.10,2013-02-02 02:35:00,
2013-02-01 19:50:00,31.3,14.0,30.75,WSW,258,0.0,-999.0,48,-99.99,,,0.07,weatherlink.com 1.10,2013-02-02 02:50:00,
2013-02-01 20:05:00,31.9,12.0,30.68,WSW,258,0.0,-999.0,43,-99.99,,,0.07,weatherlink.com 1.10,2013-02-02 03:05:00,
2013-02-01 20:21:00,32.1,12.0,30.69,WSW,258,0.0,-999.0,43,-99.99,,,0.07,weatherlink.com 1.10,2013-02-02 03:21:00,
2013-02-01 20:36:00,31.9,13.0,30.69,WSW,258,0.0,-999.0,46,-99.99,,,0.07,weatherlink.com 1.10,2013-02-02 03:36:00,
2013-02-01 20:50:00,31.6,10.0,30.70,WSW,258,0.0,-999.0,41,-99.99,,,0.07,weatherlink.com 1.10,2013-02-02 03:50:00,
2013-02-01 21:05:00,30.1,14.0,30.66,WSW,258,0.0,-999.0,51,-99.99,,,0.07,weatherlink.com 1.10,2013-02-02 04:05:00,
2013-02-01 21:20:00,28.4,16.0,30.67,WSW,258,0.0,-999.0,60,-99.99,,,0.07,weatherlink.com 1.10,2013-02-02 04:20:00,
2013-02-01 21:36:00,26.4,17.0,30.69,WSW,258,0.0,-999.0,68,-99.99,,,0.07,weatherlink.com 1.10,2013-02-02 04:36:00,
2013-02-01 21:50:00,25.7,16.0,30.71,WSW,258,0.0,-999.0,66,-99.99,,,0.07,weatherlink.com 1.10,2013-02-02 04:50:00,
2013-02-01 22:06:00,26.0,15.0,30.69,West,259,0.0,-999.0,64,-99.99,,,0.07,weatherlink.com 1.10,2013-02-02 05:06:00,
2013-02-01 22:20:00,26.7,15.0,30.69,West,262,0.0,-999.0,62,-99.99,,,0.07,weatherlink.com 1.10,2013-02-02 05:20:00,
2013-02-01 22:35:00,25.7,16.0,30.69,West,262,0.0,-999.0,67,-99.99,,,0.07,weatherlink.com 1.10,2013-02-02 05:35:00,
2013-02-01 22:50:00,24.8,16.0,30.71,West,262,0.0,-999.0,68,-99.99,,,0.07,weatherlink.com 1.10,2013-02-02 05:50:00,
2013-02-01 23:05:00,24.8,15.0,30.70,West,262,0.0,-999.0,67,-99.99,,,0.07,weatherlink.com 1.10,2013-02-02 06:05:00,
2013-02-01 23:20:00,24.7,15.0,30.70,West,261,0.0,-999.0,67,-99.99,,,0.07,weatherlink.com 1.10,2013-02-02 06:20:00,
2013-02-01 23:36:00,25.6,14.0,30.69,West,261,1.0,-999.0,62,-99.99,,,0.07,weatherlink.com 1.10,2013-02-02 06:36:00,
2013-02-01 23:50:00,24.8,15.0,30.71,West,261,0.0,-999.0,66,-99.99,,,0.00,weatherlink.com 1.10,2013-02-02 06:50:00,